sensor_id;sensor_type;location;lat;lon;timestamp;P1;durP1;ratioP1;P2;durP2;ratioP2
63312;SDS011;49442;45.640;13.812;2023-03-05T00:00:10;7.68;;;4.20;;
63312;SDS011;49442;45.640;13.812;2023-03-05T00:02:37;5.13;;;4.10;;
63312;SDS011;49442;45.640;13.812;2023-03-05T00:05:03;5.20;;;4.00;;
63312;SDS011;49442;45.640;13.812;2023-03-05T00:07:29;6.00;;;3.88;;
63312;SDS011;49442;45.640;13.812;2023-03-05T00:09:57;5.97;;;4.07;;
63312;SDS011;49442;45.640;13.812;2023-03-05T00:12:23;4.88;;;3.80;;
63312;SDS011;49442;45.640;13.812;2023-03-05T00:14:49;7.38;;;4.15;;
63312;SDS011;49442;45.640;13.812;2023-03-05T00:17:15;7.05;;;4.30;;
63312;SDS011;49442;45.640;13.812;2023-03-05T00:19:40;6.00;;;4.00;;
63312;SDS011;49442;45.640;13.812;2023-03-05T00:22:06;10.05;;;3.95;;
63312;SDS011;49442;45.640;13.812;2023-03-05T00:24:32;6.18;;;4.28;;
63312;SDS011;49442;45.640;13.812;2023-03-05T00:26:58;7.10;;;3.50;;
63312;SDS011;49442;45.640;13.812;2023-03-05T00:29:23;5.40;;;3.65;;
63312;SDS011;49442;45.640;13.812;2023-03-05T00:31:49;8.15;;;4.63;;
63312;SDS011;49442;45.640;13.812;2023-03-05T00:34:15;5.38;;;3.67;;
63312;SDS011;49442;45.640;13.812;2023-03-05T00:36:44;6.50;;;3.90;;
63312;SDS011;49442;45.640;13.812;2023-03-05T00:39:12;6.88;;;3.75;;
63312;SDS011;49442;45.640;13.812;2023-03-05T00:41:39;5.40;;;3.72;;
63312;SDS011;49442;45.640;13.812;2023-03-05T00:44:05;4.63;;;3.85;;
63312;SDS011;49442;45.640;13.812;2023-03-05T00:46:31;6.28;;;3.67;;
63312;SDS011;49442;45.640;13.812;2023-03-05T00:48:57;7.57;;;4.53;;
63312;SDS011;49442;45.640;13.812;2023-03-05T00:51:23;5.03;;;3.75;;
63312;SDS011;49442;45.640;13.812;2023-03-05T00:53:49;6.47;;;4.30;;
63312;SDS011;49442;45.640;13.812;2023-03-05T00:56:15;6.18;;;4.03;;
63312;SDS011;49442;45.640;13.812;2023-03-05T00:58:41;6.47;;;3.97;;
63312;SDS011;49442;45.640;13.812;2023-03-05T01:01:06;5.70;;;3.90;;
63312;SDS011;49442;45.640;13.812;2023-03-05T01:03:32;8.32;;;4.93;;
63312;SDS011;49442;45.640;13.812;2023-03-05T01:05:59;5.35;;;3.92;;
63312;SDS011;49442;45.640;13.812;2023-03-05T01:08:27;5.25;;;4.13;;
63312;SDS011;49442;45.640;13.812;2023-03-05T01:10:53;4.88;;;3.22;;
63312;SDS011;49442;45.640;13.812;2023-03-05T01:13:19;4.85;;;3.38;;
63312;SDS011;49442;45.640;13.812;2023-03-05T01:15:45;9.27;;;4.00;;
63312;SDS011;49442;45.640;13.812;2023-03-05T01:18:12;4.75;;;3.63;;
63312;SDS011;49442;45.640;13.812;2023-03-05T01:20:38;6.65;;;3.50;;
63312;SDS011;49442;45.640;13.812;2023-03-05T01:23:04;5.75;;;3.72;;
63312;SDS011;49442;45.640;13.812;2023-03-05T01:25:30;5.03;;;3.50;;
63312;SDS011;49442;45.640;13.812;2023-03-05T01:27:55;5.90;;;4.20;;
63312;SDS011;49442;45.640;13.812;2023-03-05T01:30:21;4.90;;;3.30;;
63312;SDS011;49442;45.640;13.812;2023-03-05T01:32:47;6.10;;;3.97;;
63312;SDS011;49442;45.640;13.812;2023-03-05T01:35:21;5.85;;;4.30;;
63312;SDS011;49442;45.640;13.812;2023-03-05T01:37:48;3.80;;;3.30;;
63312;SDS011;49442;45.640;13.812;2023-03-05T01:40:15;6.25;;;4.38;;
63312;SDS011;49442;45.640;13.812;2023-03-05T01:42:44;7.90;;;3.80;;
63312;SDS011;49442;45.640;13.812;2023-03-05T01:45:13;5.20;;;3.60;;
63312;SDS011;49442;45.640;13.812;2023-03-05T01:47:41;5.47;;;3.47;;
63312;SDS011;49442;45.640;13.812;2023-03-05T01:50:08;5.60;;;3.40;;
63312;SDS011;49442;45.640;13.812;2023-03-05T01:52:36;4.35;;;3.65;;
63312;SDS011;49442;45.640;13.812;2023-03-05T01:55:13;5.25;;;3.70;;
63312;SDS011;49442;45.640;13.812;2023-03-05T01:57:49;4.40;;;3.85;;
63312;SDS011;49442;45.640;13.812;2023-03-05T02:00:25;5.55;;;3.65;;
63312;SDS011;49442;45.640;13.812;2023-03-05T02:02:54;6.47;;;3.53;;
63312;SDS011;49442;45.640;13.812;2023-03-05T02:05:22;4.88;;;4.10;;
63312;SDS011;49442;45.640;13.812;2023-03-05T02:10:22;7.55;;;3.67;;
63312;SDS011;49442;45.640;13.812;2023-03-05T02:12:50;5.78;;;4.13;;
63312;SDS011;49442;45.640;13.812;2023-03-05T02:15:18;6.38;;;4.40;;
63312;SDS011;49442;45.640;13.812;2023-03-05T02:17:44;5.25;;;3.63;;
63312;SDS011;49442;45.640;13.812;2023-03-05T02:20:12;5.55;;;3.88;;
63312;SDS011;49442;45.640;13.812;2023-03-05T02:22:40;5.45;;;3.40;;
63312;SDS011;49442;45.640;13.812;2023-03-05T02:27:40;6.30;;;4.13;;
63312;SDS011;49442;45.640;13.812;2023-03-05T02:30:08;4.72;;;3.78;;
63312;SDS011;49442;45.640;13.812;2023-03-05T02:32:35;4.00;;;3.33;;
63312;SDS011;49442;45.640;13.812;2023-03-05T02:35:00;6.00;;;3.65;;
63312;SDS011;49442;45.640;13.812;2023-03-05T02:37:26;5.60;;;4.00;;
63312;SDS011;49442;45.640;13.812;2023-03-05T02:39:51;5.50;;;3.45;;
63312;SDS011;49442;45.640;13.812;2023-03-05T02:42:17;5.75;;;3.78;;
63312;SDS011;49442;45.640;13.812;2023-03-05T02:44:43;5.20;;;3.70;;
63312;SDS011;49442;45.640;13.812;2023-03-05T02:47:08;5.97;;;3.72;;
63312;SDS011;49442;45.640;13.812;2023-03-05T02:49:34;5.03;;;3.75;;
63312;SDS011;49442;45.640;13.812;2023-03-05T02:52:00;6.32;;;4.05;;
63312;SDS011;49442;45.640;13.812;2023-03-05T02:54:25;4.30;;;3.78;;
63312;SDS011;49442;45.640;13.812;2023-03-05T02:56:51;5.72;;;3.72;;
63312;SDS011;49442;45.640;13.812;2023-03-05T02:59:16;6.35;;;3.47;;
63312;SDS011;49442;45.640;13.812;2023-03-05T03:01:42;5.45;;;3.97;;
63312;SDS011;49442;45.640;13.812;2023-03-05T03:04:08;5.72;;;3.83;;
63312;SDS011;49442;45.640;13.812;2023-03-05T03:06:34;5.07;;;3.65;;
63312;SDS011;49442;45.640;13.812;2023-03-05T03:08:59;4.63;;;3.50;;
63312;SDS011;49442;45.640;13.812;2023-03-05T03:11:25;5.65;;;3.60;;
63312;SDS011;49442;45.640;13.812;2023-03-05T03:13:50;4.93;;;4.00;;
63312;SDS011;49442;45.640;13.812;2023-03-05T03:16:16;4.75;;;4.20;;
63312;SDS011;49442;45.640;13.812;2023-03-05T03:18:42;4.05;;;3.65;;
63312;SDS011;49442;45.640;13.812;2023-03-05T03:21:15;6.10;;;4.53;;
63312;SDS011;49442;45.640;13.812;2023-03-05T03:23:42;4.65;;;3.85;;
63312;SDS011;49442;45.640;13.812;2023-03-05T03:26:08;4.53;;;3.60;;
63312;SDS011;49442;45.640;13.812;2023-03-05T03:28:33;4.60;;;3.55;;
63312;SDS011;49442;45.640;13.812;2023-03-05T03:30:59;7.45;;;3.88;;
63312;SDS011;49442;45.640;13.812;2023-03-05T03:33:24;4.68;;;3.42;;
63312;SDS011;49442;45.640;13.812;2023-03-05T03:35:50;4.38;;;3.35;;
63312;SDS011;49442;45.640;13.812;2023-03-05T03:38:16;5.65;;;3.75;;
63312;SDS011;49442;45.640;13.812;2023-03-05T03:40:41;6.43;;;4.38;;
63312;SDS011;49442;45.640;13.812;2023-03-05T03:43:07;4.47;;;3.60;;
63312;SDS011;49442;45.640;13.812;2023-03-05T03:45:33;5.65;;;4.30;;
63312;SDS011;49442;45.640;13.812;2023-03-05T03:47:59;6.70;;;4.07;;
63312;SDS011;49442;45.640;13.812;2023-03-05T03:50:24;5.20;;;3.80;;
63312;SDS011;49442;45.640;13.812;2023-03-05T03:52:50;8.40;;;3.60;;
63312;SDS011;49442;45.640;13.812;2023-03-05T03:55:16;6.32;;;3.85;;
63312;SDS011;49442;45.640;13.812;2023-03-05T03:57:42;5.50;;;4.03;;
63312;SDS011;49442;45.640;13.812;2023-03-05T04:00:08;4.68;;;3.60;;
63312;SDS011;49442;45.640;13.812;2023-03-05T04:02:35;5.80;;;3.70;;
63312;SDS011;49442;45.640;13.812;2023-03-05T04:05:01;5.95;;;3.63;;
63312;SDS011;49442;45.640;13.812;2023-03-05T04:07:27;6.72;;;4.20;;
63312;SDS011;49442;45.640;13.812;2023-03-05T04:09:53;4.72;;;3.72;;
63312;SDS011;49442;45.640;13.812;2023-03-05T04:12:19;5.25;;;3.70;;
63312;SDS011;49442;45.640;13.812;2023-03-05T04:14:46;8.25;;;4.13;;
63312;SDS011;49442;45.640;13.812;2023-03-05T04:17:13;7.20;;;4.10;;
63312;SDS011;49442;45.640;13.812;2023-03-05T04:19:39;5.20;;;4.03;;
63312;SDS011;49442;45.640;13.812;2023-03-05T04:22:06;5.82;;;4.25;;
63312;SDS011;49442;45.640;13.812;2023-03-05T04:24:35;5.30;;;3.63;;
63312;SDS011;49442;45.640;13.812;2023-03-05T04:27:02;4.72;;;3.88;;
63312;SDS011;49442;45.640;13.812;2023-03-05T04:29:27;4.07;;;3.33;;
63312;SDS011;49442;45.640;13.812;2023-03-05T04:31:53;6.43;;;3.50;;
63312;SDS011;49442;45.640;13.812;2023-03-05T04:34:19;4.70;;;3.60;;
63312;SDS011;49442;45.640;13.812;2023-03-05T04:36:44;4.15;;;3.25;;
63312;SDS011;49442;45.640;13.812;2023-03-05T04:39:10;4.53;;;3.63;;
63312;SDS011;49442;45.640;13.812;2023-03-05T04:41:35;7.38;;;4.38;;
63312;SDS011;49442;45.640;13.812;2023-03-05T04:44:01;5.05;;;3.88;;
63312;SDS011;49442;45.640;13.812;2023-03-05T04:46:27;5.25;;;3.75;;
63312;SDS011;49442;45.640;13.812;2023-03-05T04:48:52;5.53;;;4.05;;
63312;SDS011;49442;45.640;13.812;2023-03-05T04:51:18;8.68;;;3.90;;
63312;SDS011;49442;45.640;13.812;2023-03-05T04:53:44;7.53;;;3.47;;
63312;SDS011;49442;45.640;13.812;2023-03-05T04:56:10;6.40;;;3.95;;
63312;SDS011;49442;45.640;13.812;2023-03-05T04:58:35;5.20;;;3.83;;
63312;SDS011;49442;45.640;13.812;2023-03-05T05:01:01;5.72;;;3.88;;
63312;SDS011;49442;45.640;13.812;2023-03-05T05:03:28;4.72;;;3.60;;
63312;SDS011;49442;45.640;13.812;2023-03-05T05:05:55;5.07;;;4.00;;
63312;SDS011;49442;45.640;13.812;2023-03-05T05:08:22;4.40;;;3.58;;
63312;SDS011;49442;45.640;13.812;2023-03-05T05:10:55;4.80;;;3.83;;
63312;SDS011;49442;45.640;13.812;2023-03-05T05:13:21;5.55;;;3.85;;
63312;SDS011;49442;45.640;13.812;2023-03-05T05:15:46;9.75;;;3.65;;
63312;SDS011;49442;45.640;13.812;2023-03-05T05:18:12;8.02;;;3.97;;
63312;SDS011;49442;45.640;13.812;2023-03-05T05:20:37;4.38;;;3.65;;
63312;SDS011;49442;45.640;13.812;2023-03-05T05:23:03;6.10;;;3.60;;
63312;SDS011;49442;45.640;13.812;2023-03-05T05:25:29;6.05;;;3.92;;
63312;SDS011;49442;45.640;13.812;2023-03-05T05:27:54;4.57;;;3.85;;
63312;SDS011;49442;45.640;13.812;2023-03-05T05:30:20;4.38;;;3.78;;
63312;SDS011;49442;45.640;13.812;2023-03-05T05:32:46;5.18;;;3.38;;
63312;SDS011;49442;45.640;13.812;2023-03-05T05:35:12;5.63;;;3.88;;
63312;SDS011;49442;45.640;13.812;2023-03-05T05:37:38;5.60;;;3.88;;
63312;SDS011;49442;45.640;13.812;2023-03-05T05:40:03;5.55;;;4.18;;
63312;SDS011;49442;45.640;13.812;2023-03-05T05:42:30;4.57;;;3.63;;
63312;SDS011;49442;45.640;13.812;2023-03-05T05:44:55;5.00;;;3.63;;
63312;SDS011;49442;45.640;13.812;2023-03-05T05:47:21;4.38;;;3.47;;
63312;SDS011;49442;45.640;13.812;2023-03-05T05:49:47;5.40;;;3.88;;
63312;SDS011;49442;45.640;13.812;2023-03-05T05:52:12;5.22;;;3.88;;
63312;SDS011;49442;45.640;13.812;2023-03-05T05:54:38;5.30;;;3.78;;
63312;SDS011;49442;45.640;13.812;2023-03-05T05:57:04;5.45;;;3.80;;
63312;SDS011;49442;45.640;13.812;2023-03-05T05:59:30;4.63;;;3.30;;
63312;SDS011;49442;45.640;13.812;2023-03-05T06:01:56;5.72;;;3.88;;
63312;SDS011;49442;45.640;13.812;2023-03-05T06:04:21;5.53;;;3.90;;
63312;SDS011;49442;45.640;13.812;2023-03-05T06:06:47;5.35;;;4.13;;
63312;SDS011;49442;45.640;13.812;2023-03-05T06:09:13;5.70;;;3.90;;
63312;SDS011;49442;45.640;13.812;2023-03-05T06:11:39;4.30;;;3.67;;
63312;SDS011;49442;45.640;13.812;2023-03-05T06:14:04;4.45;;;3.72;;
63312;SDS011;49442;45.640;13.812;2023-03-05T06:16:31;8.30;;;4.00;;
63312;SDS011;49442;45.640;13.812;2023-03-05T06:18:57;5.68;;;4.00;;
63312;SDS011;49442;45.640;13.812;2023-03-05T06:21:24;5.28;;;3.95;;
63312;SDS011;49442;45.640;13.812;2023-03-05T06:23:49;4.72;;;4.10;;
63312;SDS011;49442;45.640;13.812;2023-03-05T06:26:17;6.82;;;4.55;;
63312;SDS011;49442;45.640;13.812;2023-03-05T06:28:44;5.50;;;3.90;;
63312;SDS011;49442;45.640;13.812;2023-03-05T06:31:14;8.50;;;3.95;;
63312;SDS011;49442;45.640;13.812;2023-03-05T06:33:42;6.55;;;3.72;;
63312;SDS011;49442;45.640;13.812;2023-03-05T06:36:09;7.30;;;3.58;;
63312;SDS011;49442;45.640;13.812;2023-03-05T06:38:37;5.53;;;3.92;;
63312;SDS011;49442;45.640;13.812;2023-03-05T06:41:04;5.32;;;3.75;;
63312;SDS011;49442;45.640;13.812;2023-03-05T06:43:33;4.13;;;3.47;;
63312;SDS011;49442;45.640;13.812;2023-03-05T06:46:03;5.30;;;4.15;;
63312;SDS011;49442;45.640;13.812;2023-03-05T06:48:30;8.63;;;3.92;;
63312;SDS011;49442;45.640;13.812;2023-03-05T06:50:56;5.50;;;3.80;;
63312;SDS011;49442;45.640;13.812;2023-03-05T06:53:22;7.60;;;3.97;;
63312;SDS011;49442;45.640;13.812;2023-03-05T06:55:48;5.75;;;3.92;;
63312;SDS011;49442;45.640;13.812;2023-03-05T06:58:15;4.47;;;3.78;;
63312;SDS011;49442;45.640;13.812;2023-03-05T07:00:40;5.57;;;3.88;;
63312;SDS011;49442;45.640;13.812;2023-03-05T07:03:08;5.32;;;4.20;;
63312;SDS011;49442;45.640;13.812;2023-03-05T07:05:36;5.65;;;3.88;;
63312;SDS011;49442;45.640;13.812;2023-03-05T07:08:03;5.30;;;4.03;;
63312;SDS011;49442;45.640;13.812;2023-03-05T07:10:29;6.00;;;4.18;;
63312;SDS011;49442;45.640;13.812;2023-03-05T07:12:54;5.65;;;4.20;;
63312;SDS011;49442;45.640;13.812;2023-03-05T07:15:20;6.75;;;4.13;;
63312;SDS011;49442;45.640;13.812;2023-03-05T07:17:46;6.18;;;4.60;;
63312;SDS011;49442;45.640;13.812;2023-03-05T07:20:12;5.57;;;4.63;;
63312;SDS011;49442;45.640;13.812;2023-03-05T07:22:38;8.93;;;3.92;;
63312;SDS011;49442;45.640;13.812;2023-03-05T07:25:04;5.05;;;4.00;;
63312;SDS011;49442;45.640;13.812;2023-03-05T07:27:33;4.90;;;4.35;;
63312;SDS011;49442;45.640;13.812;2023-03-05T07:30:00;5.72;;;4.43;;
63312;SDS011;49442;45.640;13.812;2023-03-05T07:32:25;4.95;;;3.70;;
63312;SDS011;49442;45.640;13.812;2023-03-05T07:34:51;6.38;;;4.32;;
63312;SDS011;49442;45.640;13.812;2023-03-05T07:37:16;7.03;;;4.32;;
63312;SDS011;49442;45.640;13.812;2023-03-05T07:39:42;7.15;;;4.40;;
63312;SDS011;49442;45.640;13.812;2023-03-05T07:42:08;6.95;;;4.80;;
63312;SDS011;49442;45.640;13.812;2023-03-05T07:44:33;7.35;;;5.15;;
63312;SDS011;49442;45.640;13.812;2023-03-05T07:47:00;8.63;;;4.85;;
63312;SDS011;49442;45.640;13.812;2023-03-05T07:49:25;7.38;;;5.00;;
63312;SDS011;49442;45.640;13.812;2023-03-05T07:51:51;8.38;;;5.25;;
63312;SDS011;49442;45.640;13.812;2023-03-05T07:54:16;6.60;;;5.03;;
63312;SDS011;49442;45.640;13.812;2023-03-05T07:56:42;6.05;;;4.95;;
63312;SDS011;49442;45.640;13.812;2023-03-05T07:59:10;6.65;;;5.15;;
63312;SDS011;49442;45.640;13.812;2023-03-05T08:01:37;6.28;;;4.43;;
63312;SDS011;49442;45.640;13.812;2023-03-05T08:04:03;7.15;;;5.25;;
63312;SDS011;49442;45.640;13.812;2023-03-05T08:06:30;11.88;;;5.30;;
63312;SDS011;49442;45.640;13.812;2023-03-05T08:08:56;6.18;;;5.10;;
63312;SDS011;49442;45.640;13.812;2023-03-05T08:11:22;8.05;;;5.32;;
63312;SDS011;49442;45.640;13.812;2023-03-05T08:13:48;7.25;;;5.05;;
63312;SDS011;49442;45.640;13.812;2023-03-05T08:16:15;7.78;;;5.38;;
63312;SDS011;49442;45.640;13.812;2023-03-05T08:18:43;8.70;;;5.32;;
63312;SDS011;49442;45.640;13.812;2023-03-05T08:21:19;12.52;;;5.38;;
63312;SDS011;49442;45.640;13.812;2023-03-05T08:23:47;6.55;;;5.05;;
63312;SDS011;49442;45.640;13.812;2023-03-05T08:26:14;6.85;;;5.20;;
63312;SDS011;49442;45.640;13.812;2023-03-05T08:28:43;9.68;;;5.68;;
63312;SDS011;49442;45.640;13.812;2023-03-05T08:31:09;10.43;;;6.45;;
63312;SDS011;49442;45.640;13.812;2023-03-05T08:33:37;15.10;;;7.50;;
63312;SDS011;49442;45.640;13.812;2023-03-05T08:36:03;19.10;;;8.13;;
63312;SDS011;49442;45.640;13.812;2023-03-05T08:38:30;16.67;;;8.02;;
63312;SDS011;49442;45.640;13.812;2023-03-05T08:40:55;17.63;;;8.73;;
63312;SDS011;49442;45.640;13.812;2023-03-05T08:43:21;19.65;;;8.90;;
63312;SDS011;49442;45.640;13.812;2023-03-05T08:45:47;19.33;;;9.38;;
63312;SDS011;49442;45.640;13.812;2023-03-05T08:48:13;20.88;;;9.52;;
63312;SDS011;49442;45.640;13.812;2023-03-05T08:50:39;23.05;;;9.63;;
63312;SDS011;49442;45.640;13.812;2023-03-05T08:53:05;22.10;;;10.48;;
63312;SDS011;49442;45.640;13.812;2023-03-05T08:55:30;20.92;;;9.50;;
63312;SDS011;49442;45.640;13.812;2023-03-05T08:57:56;22.40;;;9.98;;
63312;SDS011;49442;45.640;13.812;2023-03-05T09:00:22;22.02;;;9.70;;
63312;SDS011;49442;45.640;13.812;2023-03-05T09:02:48;21.48;;;10.00;;
63312;SDS011;49442;45.640;13.812;2023-03-05T09:05:13;30.45;;;10.25;;
63312;SDS011;49442;45.640;13.812;2023-03-05T09:07:39;19.73;;;10.13;;
63312;SDS011;49442;45.640;13.812;2023-03-05T09:10:05;24.08;;;10.43;;
63312;SDS011;49442;45.640;13.812;2023-03-05T09:12:31;18.73;;;9.48;;
63312;SDS011;49442;45.640;13.812;2023-03-05T09:14:57;26.17;;;10.85;;
63312;SDS011;49442;45.640;13.812;2023-03-05T09:17:23;18.90;;;10.10;;
63312;SDS011;49442;45.640;13.812;2023-03-05T09:19:49;20.80;;;10.57;;
63312;SDS011;49442;45.640;13.812;2023-03-05T09:22:14;23.52;;;9.60;;
63312;SDS011;49442;45.640;13.812;2023-03-05T09:24:40;23.67;;;9.68;;
63312;SDS011;49442;45.640;13.812;2023-03-05T09:27:07;23.67;;;10.63;;
63312;SDS011;49442;45.640;13.812;2023-03-05T09:29:33;20.08;;;9.73;;
63312;SDS011;49442;45.640;13.812;2023-03-05T09:31:58;24.33;;;10.18;;
63312;SDS011;49442;45.640;13.812;2023-03-05T09:34:24;20.52;;;9.77;;
63312;SDS011;49442;45.640;13.812;2023-03-05T09:36:50;20.35;;;11.15;;
63312;SDS011;49442;45.640;13.812;2023-03-05T09:39:16;22.15;;;9.18;;
63312;SDS011;49442;45.640;13.812;2023-03-05T09:50:04;20.73;;;9.77;;
63312;SDS011;49442;45.640;13.812;2023-03-05T09:52:53;24.58;;;10.77;;
63312;SDS011;49442;45.640;13.812;2023-03-05T09:57:57;20.55;;;9.13;;
63312;SDS011;49442;45.640;13.812;2023-03-05T10:03:08;17.98;;;10.10;;
63312;SDS011;49442;45.640;13.812;2023-03-05T10:08:21;19.13;;;9.52;;
63312;SDS011;49442;45.640;13.812;2023-03-05T10:10:52;19.60;;;9.32;;
63312;SDS011;49442;45.640;13.812;2023-03-05T10:13:23;19.55;;;9.55;;
63312;SDS011;49442;45.640;13.812;2023-03-05T10:18:52;21.73;;;9.52;;
63312;SDS011;49442;45.640;13.812;2023-03-05T10:21:27;17.10;;;8.15;;
63312;SDS011;49442;45.640;13.812;2023-03-05T10:24:02;17.30;;;9.40;;
63312;SDS011;49442;45.640;13.812;2023-03-05T10:26:44;16.42;;;8.73;;
63312;SDS011;49442;45.640;13.812;2023-03-05T10:37:34;13.63;;;8.48;;
63312;SDS011;49442;45.640;13.812;2023-03-05T10:45:20;15.63;;;8.23;;
63312;SDS011;49442;45.640;13.812;2023-03-05T10:50:44;13.50;;;7.85;;
63312;SDS011;49442;45.640;13.812;2023-03-05T10:55:50;12.40;;;7.88;;
63312;SDS011;49442;45.640;13.812;2023-03-05T10:58:20;12.60;;;8.05;;
63312;SDS011;49442;45.640;13.812;2023-03-05T11:03:47;14.02;;;7.80;;
63312;SDS011;49442;45.640;13.812;2023-03-05T11:06:31;28.73;;;10.02;;
63312;SDS011;49442;45.640;13.812;2023-03-05T11:09:17;35.42;;;11.68;;
63312;SDS011;49442;45.640;13.812;2023-03-05T11:17:31;41.78;;;13.23;;
63312;SDS011;49442;45.640;13.812;2023-03-05T11:20:19;34.30;;;12.60;;
63312;SDS011;49442;45.640;13.812;2023-03-05T11:29:13;37.38;;;12.98;;
63312;SDS011;49442;45.640;13.812;2023-03-05T11:39:18;38.78;;;12.07;;
63312;SDS011;49442;45.640;13.812;2023-03-05T11:44:50;36.88;;;12.02;;
63312;SDS011;49442;45.640;13.812;2023-03-05T11:50:00;28.15;;;11.95;;
63312;SDS011;49442;45.640;13.812;2023-03-05T11:52:38;24.40;;;10.57;;
63312;SDS011;49442;45.640;13.812;2023-03-05T11:55:14;31.40;;;10.88;;
63312;SDS011;49442;45.640;13.812;2023-03-05T11:58:30;23.50;;;10.50;;
63312;SDS011;49442;45.640;13.812;2023-03-05T12:00:42;21.80;;;10.32;;
63312;SDS011;49442;45.640;13.812;2023-03-05T12:03:13;25.70;;;10.82;;
63312;SDS011;49442;45.640;13.812;2023-03-05T12:05:47;23.05;;;9.63;;
63312;SDS011;49442;45.640;13.812;2023-03-05T12:08:19;24.98;;;9.60;;
63312;SDS011;49442;45.640;13.812;2023-03-05T12:10:50;30.67;;;10.85;;
63312;SDS011;49442;45.640;13.812;2023-03-05T12:24:38;19.15;;;8.60;;
63312;SDS011;49442;45.640;13.812;2023-03-05T12:31:54;17.17;;;8.20;;
63312;SDS011;49442;45.640;13.812;2023-03-05T12:42:32;18.45;;;8.80;;
63312;SDS011;49442;45.640;13.812;2023-03-05T12:45:39;14.35;;;7.10;;
63312;SDS011;49442;45.640;13.812;2023-03-05T12:55:29;15.38;;;7.20;;
63312;SDS011;49442;45.640;13.812;2023-03-05T13:01:05;12.20;;;6.60;;
63312;SDS011;49442;45.640;13.812;2023-03-05T13:03:48;13.38;;;7.35;;
63312;SDS011;49442;45.640;13.812;2023-03-05T13:06:24;16.50;;;7.85;;
63312;SDS011;49442;45.640;13.812;2023-03-05T13:09:00;13.55;;;7.97;;
63312;SDS011;49442;45.640;13.812;2023-03-05T13:11:29;10.95;;;7.32;;
63312;SDS011;49442;45.640;13.812;2023-03-05T13:13:58;13.55;;;8.18;;
63312;SDS011;49442;45.640;13.812;2023-03-05T13:16:25;14.52;;;8.30;;
63312;SDS011;49442;45.640;13.812;2023-03-05T13:18:54;11.88;;;7.53;;
63312;SDS011;49442;45.640;13.812;2023-03-05T13:21:24;13.23;;;7.63;;
63312;SDS011;49442;45.640;13.812;2023-03-05T13:23:54;12.18;;;7.07;;
63312;SDS011;49442;45.640;13.812;2023-03-05T13:26:35;11.30;;;7.57;;
63312;SDS011;49442;45.640;13.812;2023-03-05T13:29:12;11.50;;;8.52;;
63312;SDS011;49442;45.640;13.812;2023-03-05T13:31:42;12.45;;;8.25;;
63312;SDS011;49442;45.640;13.812;2023-03-05T13:36:49;14.27;;;8.55;;
63312;SDS011;49442;45.640;13.812;2023-03-05T13:39:17;13.13;;;7.70;;
63312;SDS011;49442;45.640;13.812;2023-03-05T13:41:54;13.98;;;8.55;;
63312;SDS011;49442;45.640;13.812;2023-03-05T13:44:27;12.13;;;9.23;;
63312;SDS011;49442;45.640;13.812;2023-03-05T13:47:16;11.60;;;8.93;;
63312;SDS011;49442;45.640;13.812;2023-03-05T13:49:44;14.55;;;8.40;;
63312;SDS011;49442;45.640;13.812;2023-03-05T13:52:11;17.48;;;9.75;;
63312;SDS011;49442;45.640;13.812;2023-03-05T13:54:47;14.07;;;9.25;;
63312;SDS011;49442;45.640;13.812;2023-03-05T13:57:30;14.40;;;9.48;;
63312;SDS011;49442;45.640;13.812;2023-03-05T14:00:24;16.45;;;10.35;;
63312;SDS011;49442;45.640;13.812;2023-03-05T14:02:50;14.32;;;10.02;;
63312;SDS011;49442;45.640;13.812;2023-03-05T14:05:17;17.15;;;10.48;;
63312;SDS011;49442;45.640;13.812;2023-03-05T14:07:43;16.10;;;9.73;;
63312;SDS011;49442;45.640;13.812;2023-03-05T14:12:57;20.42;;;10.93;;
63312;SDS011;49442;45.640;13.812;2023-03-05T14:15:33;20.85;;;9.82;;
63312;SDS011;49442;45.640;13.812;2023-03-05T14:20:41;19.75;;;10.18;;
63312;SDS011;49442;45.640;13.812;2023-03-05T14:23:42;22.73;;;12.02;;
63312;SDS011;49442;45.640;13.812;2023-03-05T14:28:56;31.23;;;10.82;;
63312;SDS011;49442;45.640;13.812;2023-03-05T14:31:29;24.30;;;11.32;;
63312;SDS011;49442;45.640;13.812;2023-03-05T14:33:59;22.85;;;10.32;;
63312;SDS011;49442;45.640;13.812;2023-03-05T14:36:29;23.73;;;11.52;;
63312;SDS011;49442;45.640;13.812;2023-03-05T14:38:56;19.33;;;11.38;;
63312;SDS011;49442;45.640;13.812;2023-03-05T14:44:04;19.73;;;10.02;;
63312;SDS011;49442;45.640;13.812;2023-03-05T14:46:37;20.13;;;9.82;;
63312;SDS011;49442;45.640;13.812;2023-03-05T14:49:03;16.90;;;9.15;;
63312;SDS011;49442;45.640;13.812;2023-03-05T14:51:36;19.70;;;10.02;;
63312;SDS011;49442;45.640;13.812;2023-03-05T14:54:05;16.63;;;9.55;;
63312;SDS011;49442;45.640;13.812;2023-03-05T14:56:30;19.35;;;9.85;;
63312;SDS011;49442;45.640;13.812;2023-03-05T14:58:57;13.30;;;9.05;;
63312;SDS011;49442;45.640;13.812;2023-03-05T15:01:23;15.90;;;8.98;;
63312;SDS011;49442;45.640;13.812;2023-03-05T15:03:49;16.73;;;8.88;;
63312;SDS011;49442;45.640;13.812;2023-03-05T15:06:20;17.27;;;9.68;;
63312;SDS011;49442;45.640;13.812;2023-03-05T15:08:53;18.27;;;9.60;;
63312;SDS011;49442;45.640;13.812;2023-03-05T15:11:19;14.95;;;8.57;;
63312;SDS011;49442;45.640;13.812;2023-03-05T15:13:46;13.07;;;9.18;;
63312;SDS011;49442;45.640;13.812;2023-03-05T15:16:14;15.20;;;8.52;;
63312;SDS011;49442;45.640;13.812;2023-03-05T15:18:41;15.07;;;8.70;;
63312;SDS011;49442;45.640;13.812;2023-03-05T15:21:07;15.23;;;9.13;;
63312;SDS011;49442;45.640;13.812;2023-03-05T15:23:33;12.15;;;8.38;;
63312;SDS011;49442;45.640;13.812;2023-03-05T15:26:02;16.17;;;8.07;;
63312;SDS011;49442;45.640;13.812;2023-03-05T15:28:31;13.63;;;8.70;;
63312;SDS011;49442;45.640;13.812;2023-03-05T15:31:02;15.77;;;8.70;;
63312;SDS011;49442;45.640;13.812;2023-03-05T15:33:28;15.20;;;8.98;;
63312;SDS011;49442;45.640;13.812;2023-03-05T15:35:55;13.70;;;8.30;;
63312;SDS011;49442;45.640;13.812;2023-03-05T15:38:21;16.52;;;8.82;;
63312;SDS011;49442;45.640;13.812;2023-03-05T15:40:47;16.42;;;8.35;;
63312;SDS011;49442;45.640;13.812;2023-03-05T15:43:14;14.40;;;8.88;;
63312;SDS011;49442;45.640;13.812;2023-03-05T15:45:40;15.27;;;8.95;;
63312;SDS011;49442;45.640;13.812;2023-03-05T15:48:05;16.60;;;8.05;;
63312;SDS011;49442;45.640;13.812;2023-03-05T15:50:31;15.63;;;9.05;;
63312;SDS011;49442;45.640;13.812;2023-03-05T15:52:57;12.35;;;8.20;;
63312;SDS011;49442;45.640;13.812;2023-03-05T15:55:22;15.98;;;8.27;;
63312;SDS011;49442;45.640;13.812;2023-03-05T15:57:49;11.70;;;7.90;;
63312;SDS011;49442;45.640;13.812;2023-03-05T16:00:20;12.63;;;7.90;;
63312;SDS011;49442;45.640;13.812;2023-03-05T16:02:49;12.88;;;8.13;;
63312;SDS011;49442;45.640;13.812;2023-03-05T16:05:15;14.05;;;8.23;;
63312;SDS011;49442;45.640;13.812;2023-03-05T16:07:42;12.35;;;8.38;;
63312;SDS011;49442;45.640;13.812;2023-03-05T16:10:13;13.52;;;9.38;;
63312;SDS011;49442;45.640;13.812;2023-03-05T16:12:41;13.73;;;8.77;;
63312;SDS011;49442;45.640;13.812;2023-03-05T16:15:11;14.75;;;8.10;;
63312;SDS011;49442;45.640;13.812;2023-03-05T16:17:40;15.48;;;7.88;;
63312;SDS011;49442;45.640;13.812;2023-03-05T16:20:08;14.15;;;8.07;;
63312;SDS011;49442;45.640;13.812;2023-03-05T16:22:35;9.68;;;7.07;;
63312;SDS011;49442;45.640;13.812;2023-03-05T16:25:02;16.55;;;8.63;;
63312;SDS011;49442;45.640;13.812;2023-03-05T16:27:28;12.95;;;8.52;;
63312;SDS011;49442;45.640;13.812;2023-03-05T16:29:54;12.38;;;8.15;;
63312;SDS011;49442;45.640;13.812;2023-03-05T16:32:20;10.25;;;7.40;;